Time,TemperatureF,DewpointF,PressureIn,WindDirection,WindDirectionDegrees,WindSpeedMPH,WindSpeedGustMPH,Humidity,HourlyPrecipIn,Conditions,Clouds,dailyrainin,SoftwareType,DateUTC
2013-01-04 00:25:00,30.8,21.0,30.18,WNW,295,0.0,3.0,68,0.00,,,0.00,weatherlink.com 1.10,2013-01-04 05:25:00,
2013-01-04 00:40:00,30.2,22.0,30.18,ENE,75,0.0,1.0,71,0.00,,,0.00,weatherlink.com 1.10,2013-01-04 05:40:00,
2013-01-04 00:55:00,30.3,21.0,30.18,West,272,1.0,2.0,69,0.00,,,0.00,weatherlink.com 1.10,2013-01-04 05:55:00,
2013-01-04 01:10:00,30.4,21.0,30.18,SW,222,0.0,1.0,69,0.00,,,0.00,weatherlink.com 1.10,2013-01-04 06:10:00,
2013-01-04 01:25:00,30.5,22.0,30.18,SW,222,0.0,1.0,72,0.00,,,0.00,weatherlink.com 1.10,2013-01-04 06:25:00,
2013-01-04 01:40:00,30.0,23.0,30.18,SW,222,0.0,1.0,74,0.00,,,0.00,weatherlink.com 1.10,2013-01-04 06:40:00,
2013-01-04 01:56:00,29.8,22.0,30.18,SW,222,0.0,0.0,72,0.00,,,0.00,weatherlink.com 1.10,2013-01-04 06:56:00,
2013-01-04 02:11:00,29.7,22.0,30.19,SW,222,0.0,0.0,74,0.00,,,0.00,weatherlink.com 1.10,2013-01-04 07:11:00,
2013-01-04 02:26:00,29.9,22.0,30.19,SW,233,0.0,1.0,73,0.00,,,0.00,weatherlink.com 1.10,2013-01-04 07:26:00,
2013-01-04 02:41:00,30.1,23.0,30.20,West,272,0.0,1.0,75,0.00,,,0.00,weatherlink.com 1.10,2013-01-04 07:41:00,
2013-01-04 02:56:00,30.2,24.0,30.20,West,276,1.0,2.0,76,0.00,,,0.00,weatherlink.com 1.10,2013-01-04 07:56:00,
2013-01-04 03:11:00,30.7,23.0,30.20,WSW,253,0.0,2.0,73,0.00,,,0.00,weatherlink.com 1.10,2013-01-04 08:11:00,
2013-01-04 03:26:00,30.9,23.0,30.20,West,276,1.0,2.0,73,0.00,,,0.00,weatherlink.com 1.10,2013-01-04 08:26:00,
2013-01-04 03:41:00,31.2,23.0,30.20,SSW,195,1.0,8.0,73,0.00,,,0.00,weatherlink.com 1.10,2013-01-04 08:41:00,
2013-01-04 03:56:00,31.5,23.0,30.20,West,273,0.0,6.0,71,0.00,,,0.00,weatherlink.com 1.10,2013-01-04 08:56:00,
2013-01-04 04:11:00,31.5,23.0,30.20,West,266,2.0,4.0,70,0.00,,,0.00,weatherlink.com 1.10,2013-01-04 09:11:00,
2013-01-04 04:26:00,31.6,23.0,30.19,WNW,284,2.0,4.0,71,0.00,,,0.00,weatherlink.com 1.10,2013-01-04 09:26:00,
2013-01-04 04:41:00,31.7,23.0,30.20,West,266,1.0,2.0,71,0.00,,,0.00,weatherlink.com 1.10,2013-01-04 09:41:00,
2013-01-04 04:56:00,31.8,23.0,30.20,WSW,239,3.0,5.0,70,0.00,,,0.00,weatherlink.com 1.10,2013-01-04 09:56:00,
2013-01-04 05:11:00,31.8,23.0,30.20,West,271,1.0,3.0,70,0.00,,,0.00,weatherlink.com 1.10,2013-01-04 10:11:00,
2013-01-04 05:26:00,31.8,23.0,30.20,West,280,1.0,4.0,70,0.00,,,0.00,weatherlink.com 1.10,2013-01-04 10:26:00,
2013-01-04 05:41:00,31.7,23.0,30.20,WNW,283,3.0,8.0,70,0.00,,,0.00,weatherlink.com 1.10,2013-01-04 10:41:00,
2013-01-04 05:56:00,31.7,24.0,30.20,WNW,293,2.0,4.0,72,0.00,,,0.00,weatherlink.com 1.10,2013-01-04 10:56:00,
2013-01-04 06:11:00,31.7,23.0,30.20,WNW,289,0.0,2.0,71,0.00,,,0.00,weatherlink.com 1.10,2013-01-04 11:11:00,
2013-01-04 06:26:00,31.6,23.0,30.20,WSW,257,1.0,5.0,71,0.00,,,0.00,weatherlink.com 1.10,2013-01-04 11:26:00,
2013-01-04 06:41:00,31.6,24.0,30.20,West,264,2.0,3.0,72,0.00,,,0.00,weatherlink.com 1.10,2013-01-04 11:41:00,
2013-01-04 06:56:00,31.7,23.0,30.20,SSW,205,1.0,6.0,71,0.00,,,0.00,weatherlink.com 1.10,2013-01-04 11:56:00,
2013-01-04 07:11:00,31.6,24.0,30.20,West,267,1.0,2.0,72,0.00,,,0.00,weatherlink.com 1.10,2013-01-04 12:11:00,
2013-01-04 07:26:00,31.6,24.0,30.20,West,278,0.0,5.0,72,0.00,,,0.00,weatherlink.com 1.10,2013-01-04 12:26:00,
2013-01-04 07:41:00,31.6,23.0,30.19,SW,230,2.0,3.0,71,0.00,,,0.00,weatherlink.com 1.10,2013-01-04 12:41:00,
2013-01-04 07:56:00,31.7,23.0,30.19,West,279,2.0,8.0,70,0.00,,,0.00,weatherlink.com 1.10,2013-01-04 12:56:00,
2013-01-04 08:11:00,31.8,23.0,30.19,West,274,2.0,6.0,70,0.00,,,0.00,weatherlink.com 1.10,2013-01-04 13:11:00,
2013-01-04 08:26:00,31.9,23.0,30.20,WSW,253,2.0,4.0,70,0.00,,,0.00,weatherlink.com 1.10,2013-01-04 13:26:00,
2013-01-04 08:41:00,32.1,23.0,30.20,WSW,245,2.0,7.0,70,0.00,,,0.00,weatherlink.com 1.10,2013-01-04 13:41:00,
2013-01-04 08:56:00,32.3,24.0,30.20,SW,224,1.0,3.0,71,0.00,,,0.00,weatherlink.com 1.10,2013-01-04 13:56:00,
2013-01-04 09:12:00,32.5,24.0,30.20,West,263,1.0,6.0,70,0.00,,,0.00,weatherlink.com 1.10,2013-01-04 14:12:00,
2013-01-04 09:26:00,32.8,24.0,30.20,WSW,245,2.0,6.0,71,0.00,,,0.00,weatherlink.com 1.10,2013-01-04 14:26:00,
2013-01-04 09:41:00,33.1,24.0,30.20,West,260,2.0,8.0,69,0.00,,,0.00,weatherlink.com 1.10,2013-01-04 14:41:00,
2013-01-04 09:56:00,33.3,24.0,30.20,WSW,250,3.0,6.0,70,0.00,,,0.00,weatherlink.com 1.10,2013-01-04 14:56:00,
2013-01-04 10:11:00,33.3,24.0,30.20,WSW,252,4.0,9.0,69,0.00,,,0.00,weatherlink.com 1.10,2013-01-04 15:11:00,
2013-01-04 10:26:00,35.7,25.0,30.20,WSW,240,3.0,4.0,66,0.00,,,0.00,weatherlink.com 1.10,2013-01-04 15:26:00,
2013-01-04 10:41:00,35.0,24.0,30.20,West,259,2.0,7.0,65,0.00,,,0.00,weatherlink.com 1.10,2013-01-04 15:41:00,
2013-01-04 10:56:00,34.9,25.0,30.19,West,265,2.0,4.0,66,0.00,,,0.00,weatherlink.com 1.10,2013-01-04 15:56:00,
2013-01-04 11:11:00,35.2,25.0,30.19,SSW,195,3.0,7.0,67,0.00,,,0.00,weatherlink.com 1.10,2013-01-04 16:11:00,
2013-01-04 11:26:00,34.8,25.0,30.19,West,271,1.0,5.0,67,0.00,,,0.00,weatherlink.com 1.10,2013-01-04 16:26:00,
2013-01-04 11:41:00,34.8,24.0,30.18,West,281,4.0,6.0,66,0.00,,,0.00,weatherlink.com 1.10,2013-01-04 16:41:00,
2013-01-04 11:56:00,34.8,25.0,30.17,West,270,4.0,6.0,67,0.00,,,0.00,weatherlink.com 1.10,2013-01-04 16:56:00,
2013-01-04 12:11:00,35.4,25.0,30.16,SW,231,4.0,6.0,67,0.00,,,0.00,weatherlink.com 1.10,2013-01-04 17:11:00,
2013-01-04 12:26:00,35.7,25.0,30.14,West,277,1.0,6.0,66,0.00,,,0.00,weatherlink.com 1.10,2013-01-04 17:26:00,
2013-01-04 12:41:00,37.5,27.0,30.13,WNW,294,3.0,7.0,65,0.00,,,0.00,weatherlink.com 1.10,2013-01-04 17:41:00,
2013-01-04 13:12:00,38.3,25.0,30.12,SW,236,4.0,9.0,60,0.00,,,0.00,weatherlink.com 1.10,2013-01-04 18:12:00,
2013-01-04 13:27:00,39.2,26.0,30.11,SW,236,3.0,7.0,59,0.00,,,0.00,weatherlink.com 1.10,2013-01-04 18:27:00,
2013-01-04 13:42:00,39.7,25.0,30.10,WNW,283,3.0,13.0,57,0.00,,,0.00,weatherlink.com 1.10,2013-01-04 18:42:00,
2013-01-04 13:57:00,39.9,26.0,30.10,WSW,250,4.0,6.0,59,0.00,,,0.00,weatherlink.com 1.10,2013-01-04 18:57:00,
2013-01-04 14:12:00,39.7,26.0,30.10,SW,220,2.0,6.0,58,0.00,,,0.00,weatherlink.com 1.10,2013-01-04 19:12:00,
2013-01-04 14:27:00,39.4,25.0,30.09,WSW,240,3.0,11.0,57,0.00,,,0.00,weatherlink.com 1.10,2013-01-04 19:27:00,
2013-01-04 14:42:00,40.0,26.0,30.09,WSW,252,3.0,6.0,57,0.00,,,0.00,weatherlink.com 1.10,2013-01-04 19:42:00,
2013-01-04 14:57:00,40.2,26.0,30.10,WSW,242,5.0,5.0,57,0.00,,,0.00,weatherlink.com 1.10,2013-01-04 19:57:00,
2013-01-04 15:12:00,39.3,25.0,30.10,West,281,3.0,11.0,57,0.00,,,0.00,weatherlink.com 1.10,2013-01-04 20:12:00,
2013-01-04 15:27:00,39.0,25.0,30.10,WSW,246,3.0,7.0,58,0.00,,,0.00,weatherlink.com 1.10,2013-01-04 20:27:00,
2013-01-04 15:57:00,38.6,25.0,30.10,South,189,3.0,8.0,58,0.00,,,0.00,weatherlink.com 1.10,2013-01-04 20:57:00,
2013-01-04 16:12:00,37.7,25.0,30.10,NW,307,1.0,6.0,60,0.00,,,0.00,weatherlink.com 1.10,2013-01-04 21:12:00,
2013-01-04 16:27:00,36.9,24.0,30.10,WNW,295,0.0,10.0,61,0.00,,,0.00,weatherlink.com 1.10,2013-01-04 21:27:00,
2013-01-04 16:42:00,36.1,24.0,30.10,NW,316,2.0,5.0,62,0.00,,,0.00,weatherlink.com 1.10,2013-01-04 21:42:00,
2013-01-04 16:57:00,34.8,24.0,30.09,West,271,1.0,3.0,64,0.00,,,0.00,weatherlink.com 1.10,2013-01-04 21:57:00,
2013-01-04 17:12:00,34.8,24.0,30.09,WNW,302,2.0,7.0,65,0.00,,,0.00,weatherlink.com 1.10,2013-01-04 22:12:00,
2013-01-04 17:28:00,34.1,24.0,30.09,West,276,2.0,3.0,66,0.00,,,0.00,weatherlink.com 1.10,2013-01-04 22:28:00,
2013-01-04 17:42:00,33.4,24.0,30.10,WNW,292,1.0,3.0,69,0.00,,,0.00,weatherlink.com 1.10,2013-01-04 22:42:00,
2013-01-04 17:57:00,33.1,24.0,30.10,NW,307,1.0,3.0,69,0.00,,,0.00,weatherlink.com 1.10,2013-01-04 22:57:00,
2013-01-04 18:27:00,32.6,24.0,30.11,WSW,248,0.0,6.0,71,0.00,,,0.00,weatherlink.com 1.10,2013-01-04 23:27:00,
2013-01-04 18:42:00,33.0,23.0,30.11,NW,308,2.0,5.0,68,0.00,,,0.00,weatherlink.com 1.10,2013-01-04 23:42:00,
2013-01-04 18:57:00,33.1,24.0,30.12,WNW,290,1.0,5.0,68,0.00,,,0.00,weatherlink.com 1.10,2013-01-04 23:57:00,
2013-01-04 19:12:00,32.9,23.0,30.12,WNW,297,0.0,2.0,68,0.00,,,0.00,weatherlink.com 1.10,2013-01-05 00:12:00,
2013-01-04 19:27:00,32.7,23.0,30.12,WNW,290,1.0,6.0,68,0.00,,,0.00,weatherlink.com 1.10,2013-01-05 00:27:00,
2013-01-04 19:42:00,32.7,23.0,30.12,WNW,295,1.0,4.0,68,0.00,,,0.00,weatherlink.com 1.10,2013-01-05 00:42:00,
2013-01-04 19:57:00,32.5,23.0,30.12,West,281,3.0,7.0,69,0.00,,,0.00,weatherlink.com 1.10,2013-01-05 00:57:00,
2013-01-04 20:12:00,32.4,23.0,30.12,West,281,1.0,2.0,69,0.00,,,0.00,weatherlink.com 1.10,2013-01-05 01:12:00,
2013-01-04 20:27:00,32.7,23.0,30.12,West,264,0.0,6.0,67,0.00,,,0.00,weatherlink.com 1.10,2013-01-05 01:27:00,
2013-01-04 20:42:00,32.3,22.0,30.12,NW,316,0.0,2.0,67,0.00,,,0.00,weatherlink.com 1.10,2013-01-05 01:42:00,
2013-01-04 20:56:00,32.0,22.0,30.12,WNW,283,0.0,3.0,68,0.00,,,0.00,weatherlink.com 1.10,2013-01-05 01:56:00,
2013-01-04 21:11:00,31.8,23.0,30.13,West,280,0.0,2.0,69,0.00,,,0.00,weatherlink.com 1.10,2013-01-05 02:11:00,
2013-01-04 21:26:00,31.7,22.0,30.13,WNW,297,1.0,3.0,68,0.00,,,0.00,weatherlink.com 1.10,2013-01-05 02:26:00,
2013-01-04 21:41:00,31.6,22.0,30.13,WNW,289,0.0,5.0,69,0.00,,,0.00,weatherlink.com 1.10,2013-01-05 02:41:00,
2013-01-04 21:57:00,31.4,22.0,30.13,WNW,286,2.0,3.0,69,0.00,,,0.00,weatherlink.com 1.10,2013-01-05 02:57:00,
2013-01-04 22:12:00,30.9,23.0,30.14,WNW,287,0.0,4.0,71,0.00,,,0.00,weatherlink.com 1.10,2013-01-05 03:12:00,
2013-01-04 22:27:00,30.5,22.0,30.14,WNW,301,2.0,4.0,72,0.00,,,0.00,weatherlink.com 1.10,2013-01-05 03:27:00,
2013-01-04 22:42:00,30.9,23.0,30.14,WNW,302,1.0,7.0,71,0.00,,,0.00,weatherlink.com 1.10,2013-01-05 03:42:00,
2013-01-04 22:57:00,30.7,22.0,30.14,WNW,291,0.0,2.0,71,0.00,,,0.00,weatherlink.com 1.10,2013-01-05 03:57:00,
2013-01-04 23:12:00,31.2,22.0,30.14,West,274,0.0,5.0,70,0.00,,,0.00,weatherlink.com 1.10,2013-01-05 04:12:00,
2013-01-04 23:27:00,30.8,22.0,30.14,WNW,285,0.0,4.0,71,0.00,,,0.00,weatherlink.com 1.10,2013-01-05 04:27:00,
2013-01-04 23:42:00,31.0,22.0,30.14,WNW,283,1.0,6.0,70,0.00,,,0.00,weatherlink.com 1.10,2013-01-05 04:42:00,
2013-01-04 23:57:00,30.9,22.0,30.14,West,270,0.0,2.0,70,0.00,,,0.00,weatherlink.com 1.10,2013-01-05 04:57:00,